• Join FlightAware (Why Join?)
  • Login
  • US Flag 
10:48AM EDT


 

Airport Tracker/Info


-or-


 

Live Flight TrackerFlight Track Log ✈ SWA1707 ✈ 05-May-2013 ✈ KBNA - KMSY

Flight Track Log - Related Links

Times and Time Zones

All times are in EDT time to prevent confusion due to time zone crossing. See the SWA1707 flight status page for this flight to view local times or setup timezone preferences in your user account.

Time Position Orientation Groundspeed Altitude Reporting Facility
EDT Latitude Longitude Course Direction KTS MPH feet Rate Location/Type
05:57PM 36.1333 -86.6667 360° North 155 178 1,000  Level Nashville TRACON
05:58PM 36.1833 -86.6667 360° North 189 217 3,300 2,760 Climbing Nashville TRACON
05:59PM 36.1833 -86.7333 270° West 279 321 6,800 3,120 Climbing Nashville TRACON
06:02PM 36.0094 -86.8697 212° Southwest 334 384 14,500 3,240 Climbing Memphis Center
06:03PM 35.9258 -86.9350 212° Southwest 353 406 17,900 3,180 Climbing Memphis Center
06:04PM 35.8297 -87.0106 213° Southwest 364 419 20,900 2,520 Climbing Memphis Center
06:05PM 35.7378 -87.0833 213° Southwest 387 445 23,000 1,920 Climbing Memphis Center
06:06PM 35.6461 -87.1586 214° Southwest 405 466 24,800 1,920 Climbing Memphis Center
06:07PM 35.5436 -87.2264 208° Southwest 410 472 26,900 1,980 Climbing Memphis Center
06:08PM 35.4367 -87.2939 207° Southwest 425 489 28,800 1,800 Climbing Memphis Center
06:09PM 35.3300 -87.3692 210° Southwest 434 499 30,500 1,740 Climbing Memphis Center
06:10PM 35.2211 -87.4392 208° Southwest 439 505 32,300 1,800 Climbing Memphis Center
06:11PM 35.1017 -87.5067 205° Southwest 462 532 34,200 1,560 Climbing Memphis Center
06:12PM 35.0031 -87.5658 206° Southwest 462 532 35,500 1,320 Climbing Memphis Center
06:13PM 34.8875 -87.6203 201° Southwest 451 519 36,900 1,200 Climbing Memphis Center
06:14PM 34.7658 -87.6975 208° Southwest 446 513 38,000 540 Climbing Memphis Center
06:15PM 34.6714 -87.7586 208° Southwest 446 513 38,000  Level Memphis Center
06:16PM 34.5619 -87.8225 206° Southwest 446 513 38,000  Level Memphis Center
06:18PM 34.3433 -87.9547 207° Southwest 438 504 38,000  Level Memphis Center
06:19PM 34.2403 -88.0131 205° Southwest 438 504 38,000  Level Memphis Center
06:20PM 34.1289 -88.0789 206° Southwest 438 504 38,000  Level Memphis Center
06:21PM 34.0153 -88.1469 206° Southwest 438 504 38,000  Level Memphis Center
06:22PM 33.9036 -88.2147 207° Southwest 438 504 38,000  Level Memphis Center
06:23PM 33.7964 -88.2800 207° Southwest 438 504 38,000  Level Memphis Center
06:24PM 33.6867 -88.3400 204° Southwest 438 504 38,000  Level Memphis Center
06:26PM 33.4883 -88.4617 207° Southwest 427 491 38,000  Level Memphis Center
06:27PM 33.3806 -88.5214 205° Southwest 422 486 38,000  Level Memphis Center
06:28PM 33.2731 -88.5831 206° Southwest 422 486 38,000 -120 Level Memphis Center
06:29PM 33.1653 -88.6475 207° Southwest 427 491 37,800 -600 Descending Memphis Center
06:30PM 33.0575 -88.7064 205° Southwest 427 491 36,800 -900 Descending Memphis Center
06:31PM 32.9519 -88.7678 206° Southwest 427 491 36,000 -420 Descending Memphis Center
06:32PM 32.8442 -88.8317 206° Southwest 422 486 36,000  Level Memphis Center
06:33PM 32.7364 -88.8928 206° Southwest 422 486 36,000 -180 Level Memphis Center
06:35PM 32.5247 -89.0119 205° Southwest 422 486 35,600 -360 Descending Memphis Center
06:36PM 32.4189 -89.0703 205° Southwest 422 486 35,000 -300 Descending Memphis Center
06:37PM 32.3172 -89.1283 206° Southwest 422 486 35,000  Level Memphis Center
06:38PM 32.2114 -89.1886 206° Southwest 422 486 35,000  Level Memphis Center
06:39PM 32.1075 -89.2489 206° Southwest 422 486 35,000  Level Memphis Center
06:40PM 32.0014 -89.3039 204° Southwest 422 486 35,000 -1,260 Level Memphis Center
06:41PM 31.8022 -89.4142 205° Southwest 418 481 31,600 -2,160 Descending Houston Center
06:42PM 31.6961 -89.4736 205° Southwest 423 487 28,900 -2,220 Descending Houston Center
06:44PM 31.6131 -89.5419 215° Southwest 391 450 27,100 -1,500 Descending Houston Center
06:45PM 31.5219 -89.6297 219° Southwest 355 409 25,800 -1,080 Descending Houston Center
06:46PM 31.4453 -89.7017 219° Southwest 354 407 24,900 -900 Descending Houston Center
06:47PM 31.3686 -89.7747 219° Southwest 356 410 24,000 -780 Descending Houston Center
06:48PM 31.2914 -89.8469 219° Southwest 355 409 23,300 -840 Descending Houston Center
06:49PM 31.2039 -89.9025 209° Southwest 358 412 22,300 -1,020 Descending Houston Center
06:50PM 31.1106 -89.9450 201° Southwest 361 415 21,300 -1,260 Descending Houston Center
06:51PM 30.9981 -89.9958 201° Southwest 363 418 19,700 -1,620 Descending Houston Center
06:52PM 30.9078 -90.0367 201° Southwest 354 407 18,000 -1,680 Descending Houston Center
06:53PM 30.8189 -90.0767 201° Southwest 346 398 16,200 -1,860 Descending Houston Center
06:53PM 30.7572 -90.1061 202° Southwest 336 387 15,000 -1,680 Descending Houston Center
06:54PM 30.7333 -90.1158 199° South 337 388 14,500 -1,740 Descending Houston Center
06:54PM 30.6728 -90.1436 202° Southwest 330 380 13,300 -1,680 Descending Houston Center
06:55PM 30.6483 -90.1531 198° South 330 380 12,800 -1,500 Descending Houston Center
06:55PM 30.5881 -90.1808 202° Southwest 321 369 11,800 -1,560 Descending Houston Center
06:56PM 30.5506 -90.1972 201° Southwest 318 366 11,200 -1,320 Descending Houston Center
06:56PM 30.5114 -90.2008 185° South 312 359 10,600 -1,500 Descending Houston Center
06:57PM 30.4256 -90.1925 175° South 311 358 9,100 -1,560 Descending Houston Center
06:58PM 30.3808 -90.1886 176° South 308 354 8,100 -1,620 Descending Houston Center
06:58PM 30.3397 -90.1864 177° South 309 356 7,500 -1,440 Descending Houston Center
06:59PM 30.2561 -90.1825 178° South 301 346 6,100 -1,260 Descending Houston Center
07:00PM 30.2144 -90.1792 176° South 302 348 5,400 -1,200 Descending Houston Center
07:00PM 30.1825 -90.1733 171° South 287 330 5,000 -1,080 Descending Houston Center
07:02PM 30.0817 -90.1536 170° South 276 318 3,800 -960 Descending Houston Center
07:03PM 30.0111 -90.1661 189° South 273 314 3,000 -600 Descending Houston Center
07:03PM 29.9728 -90.1722 188° South 275 316 2,900 -240 Descending Houston Center
07:04PM 29.9383 -90.1786 189° South 249 287 2,800 -540 Descending Houston Center
07:04PM 29.9056 -90.1842 188° South 261 300 2,400 -420 Descending Houston Center
07:05PM 29.8872 -90.2142 235° Southwest 162 186 2,300 -300 Descending Houston Center
07:05PM 29.8925 -90.2275 295° West 199 229 2,100 -360 Descending Houston Center
07:06PM 29.9008 -90.2522 291° West 134 154 2,000 -540 Descending Houston Center
07:06PM 29.9186 -90.2711 317° Northwest 172 198 1,600 -780 Descending Houston Center
07:07PM 29.9286 -90.2703 North 134 154 1,300 -1,020 Descending Houston Center
07:07PM 29.9547 -90.2617 16° North 147 169 600 -900 Descending Houston Center
07:08PM 29.9636 -90.2592 14° North 133 153 400 -720 Descending Houston Center